sensor_id;sensor_type;location;lat;lon;timestamp;temperature;humidity
2999;DHT22;1509;51.964;7.628;2023-07-20T00:02:21;17.90;99.90
2999;DHT22;1509;51.964;7.628;2023-07-20T00:04:46;17.90;99.90
2999;DHT22;1509;51.964;7.628;2023-07-20T00:07:12;17.80;99.90
2999;DHT22;1509;51.964;7.628;2023-07-20T00:09:37;17.70;99.90
2999;DHT22;1509;51.964;7.628;2023-07-20T00:12:03;17.70;99.90
2999;DHT22;1509;51.964;7.628;2023-07-20T00:14:29;17.70;99.90
2999;DHT22;1509;51.964;7.628;2023-07-20T00:16:55;17.70;99.90
2999;DHT22;1509;51.964;7.628;2023-07-20T00:19:25;17.70;99.90
2999;DHT22;1509;51.964;7.628;2023-07-20T00:21:52;17.70;99.90
2999;DHT22;1509;51.964;7.628;2023-07-20T00:24:18;17.60;99.90
2999;DHT22;1509;51.964;7.628;2023-07-20T00:26:44;17.60;99.90
2999;DHT22;1509;51.964;7.628;2023-07-20T00:29:10;17.50;99.90
2999;DHT22;1509;51.964;7.628;2023-07-20T00:31:36;17.50;99.90
2999;DHT22;1509;51.964;7.628;2023-07-20T00:34:03;17.40;99.90
2999;DHT22;1509;51.964;7.628;2023-07-20T00:36:29;17.40;99.90
2999;DHT22;1509;51.964;7.628;2023-07-20T00:38:54;17.40;99.90
2999;DHT22;1509;51.964;7.628;2023-07-20T00:41:20;17.30;99.90
2999;DHT22;1509;51.964;7.628;2023-07-20T00:43:46;17.40;99.90
2999;DHT22;1509;51.964;7.628;2023-07-20T00:46:12;17.40;99.90
2999;DHT22;1509;51.964;7.628;2023-07-20T00:48:38;17.40;99.90
2999;DHT22;1509;51.964;7.628;2023-07-20T00:51:05;17.30;99.90
2999;DHT22;1509;51.964;7.628;2023-07-20T00:53:31;17.40;99.90
2999;DHT22;1509;51.964;7.628;2023-07-20T00:55:56;17.30;99.90
2999;DHT22;1509;51.964;7.628;2023-07-20T00:58:23;17.30;99.90
2999;DHT22;1509;51.964;7.628;2023-07-20T01:00:49;17.20;99.90
2999;DHT22;1509;51.964;7.628;2023-07-20T01:03:14;17.00;99.90
2999;DHT22;1509;51.964;7.628;2023-07-20T01:08:56;17.00;99.90
2999;DHT22;1509;51.964;7.628;2023-07-20T01:11:30;17.00;99.90
2999;DHT22;1509;51.964;7.628;2023-07-20T01:13:57;17.00;99.90
2999;DHT22;1509;51.964;7.628;2023-07-20T01:16:23;17.00;99.90
2999;DHT22;1509;51.964;7.628;2023-07-20T01:18:49;16.90;99.90
2999;DHT22;1509;51.964;7.628;2023-07-20T01:21:23;16.90;99.90
2999;DHT22;1509;51.964;7.628;2023-07-20T01:24:04;17.00;99.90
2999;DHT22;1509;51.964;7.628;2023-07-20T01:26:38;17.00;99.90
2999;DHT22;1509;51.964;7.628;2023-07-20T01:31:53;17.10;99.90
2999;DHT22;1509;51.964;7.628;2023-07-20T01:34:19;17.00;99.90
2999;DHT22;1509;51.964;7.628;2023-07-20T01:36:48;17.10;99.90
2999;DHT22;1509;51.964;7.628;2023-07-20T01:39:16;17.10;99.90
2999;DHT22;1509;51.964;7.628;2023-07-20T01:41:42;17.00;99.90
2999;DHT22;1509;51.964;7.628;2023-07-20T01:44:08;16.90;99.90
2999;DHT22;1509;51.964;7.628;2023-07-20T01:46:34;16.90;99.90
2999;DHT22;1509;51.964;7.628;2023-07-20T01:48:59;16.90;99.90
2999;DHT22;1509;51.964;7.628;2023-07-20T01:51:25;16.90;99.90
2999;DHT22;1509;51.964;7.628;2023-07-20T01:53:50;16.80;99.90
2999;DHT22;1509;51.964;7.628;2023-07-20T01:56:16;16.80;99.90
2999;DHT22;1509;51.964;7.628;2023-07-20T01:58:42;16.90;99.90
2999;DHT22;1509;51.964;7.628;2023-07-20T02:01:07;16.80;99.90
2999;DHT22;1509;51.964;7.628;2023-07-20T02:03:33;16.90;99.90
2999;DHT22;1509;51.964;7.628;2023-07-20T02:05:58;17.00;99.90
2999;DHT22;1509;51.964;7.628;2023-07-20T02:08:24;17.00;99.90
2999;DHT22;1509;51.964;7.628;2023-07-20T02:10:51;17.00;99.90
2999;DHT22;1509;51.964;7.628;2023-07-20T02:13:17;17.00;99.90
2999;DHT22;1509;51.964;7.628;2023-07-20T02:15:43;17.00;99.90
2999;DHT22;1509;51.964;7.628;2023-07-20T02:18:08;16.80;99.90
2999;DHT22;1509;51.964;7.628;2023-07-20T02:20:35;16.50;99.90
2999;DHT22;1509;51.964;7.628;2023-07-20T02:23:00;16.00;99.90
2999;DHT22;1509;51.964;7.628;2023-07-20T02:25:26;15.80;99.90
2999;DHT22;1509;51.964;7.628;2023-07-20T02:27:52;15.60;99.90
2999;DHT22;1509;51.964;7.628;2023-07-20T02:30:18;15.50;99.90
2999;DHT22;1509;51.964;7.628;2023-07-20T02:32:43;15.50;99.90
2999;DHT22;1509;51.964;7.628;2023-07-20T02:35:16;15.40;99.90
2999;DHT22;1509;51.964;7.628;2023-07-20T02:37:42;15.40;99.90
2999;DHT22;1509;51.964;7.628;2023-07-20T02:40:08;15.30;99.90
2999;DHT22;1509;51.964;7.628;2023-07-20T02:42:35;15.30;99.90
2999;DHT22;1509;51.964;7.628;2023-07-20T02:45:04;15.40;99.90
2999;DHT22;1509;51.964;7.628;2023-07-20T02:47:33;15.30;99.90
2999;DHT22;1509;51.964;7.628;2023-07-20T02:49:59;15.20;99.90
2999;DHT22;1509;51.964;7.628;2023-07-20T02:52:25;15.30;99.90
2999;DHT22;1509;51.964;7.628;2023-07-20T02:54:50;15.30;99.90
2999;DHT22;1509;51.964;7.628;2023-07-20T02:57:16;15.40;99.90
2999;DHT22;1509;51.964;7.628;2023-07-20T02:59:42;15.40;99.90
2999;DHT22;1509;51.964;7.628;2023-07-20T03:02:07;15.50;99.90
2999;DHT22;1509;51.964;7.628;2023-07-20T03:04:35;15.40;99.90
2999;DHT22;1509;51.964;7.628;2023-07-20T03:07:04;15.30;99.90
2999;DHT22;1509;51.964;7.628;2023-07-20T03:09:38;15.30;99.90
2999;DHT22;1509;51.964;7.628;2023-07-20T03:12:05;15.20;99.90
2999;DHT22;1509;51.964;7.628;2023-07-20T03:14:31;15.20;99.90
2999;DHT22;1509;51.964;7.628;2023-07-20T03:16:56;15.20;99.90
2999;DHT22;1509;51.964;7.628;2023-07-20T03:19:22;15.20;99.90
2999;DHT22;1509;51.964;7.628;2023-07-20T03:21:47;15.20;99.90
2999;DHT22;1509;51.964;7.628;2023-07-20T03:24:13;15.30;99.90
2999;DHT22;1509;51.964;7.628;2023-07-20T03:26:39;15.30;99.90
2999;DHT22;1509;51.964;7.628;2023-07-20T03:29:05;15.20;99.90
2999;DHT22;1509;51.964;7.628;2023-07-20T03:31:32;15.20;99.90
2999;DHT22;1509;51.964;7.628;2023-07-20T03:33:57;15.20;99.90
2999;DHT22;1509;51.964;7.628;2023-07-20T03:36:23;15.20;99.90
2999;DHT22;1509;51.964;7.628;2023-07-20T03:38:48;15.20;99.90
2999;DHT22;1509;51.964;7.628;2023-07-20T03:41:15;15.20;99.90
2999;DHT22;1509;51.964;7.628;2023-07-20T03:43:41;15.20;99.90
2999;DHT22;1509;51.964;7.628;2023-07-20T03:46:07;15.20;99.90
2999;DHT22;1509;51.964;7.628;2023-07-20T03:48:33;15.20;99.90
2999;DHT22;1509;51.964;7.628;2023-07-20T03:50:59;15.30;99.90
2999;DHT22;1509;51.964;7.628;2023-07-20T03:53:27;15.40;99.90
2999;DHT22;1509;51.964;7.628;2023-07-20T03:55:53;15.40;99.90
2999;DHT22;1509;51.964;7.628;2023-07-20T03:58:19;15.40;99.90
2999;DHT22;1509;51.964;7.628;2023-07-20T04:00:46;15.40;99.90
2999;DHT22;1509;51.964;7.628;2023-07-20T04:03:13;15.30;99.90
2999;DHT22;1509;51.964;7.628;2023-07-20T04:05:39;15.40;99.90
2999;DHT22;1509;51.964;7.628;2023-07-20T04:08:05;15.40;99.90
2999;DHT22;1509;51.964;7.628;2023-07-20T04:10:30;15.30;99.90
2999;DHT22;1509;51.964;7.628;2023-07-20T04:12:56;15.30;99.90
2999;DHT22;1509;51.964;7.628;2023-07-20T04:15:22;15.20;99.90
2999;DHT22;1509;51.964;7.628;2023-07-20T04:17:47;15.20;99.90
2999;DHT22;1509;51.964;7.628;2023-07-20T04:20:13;15.40;99.90
2999;DHT22;1509;51.964;7.628;2023-07-20T04:22:38;15.20;99.90
2999;DHT22;1509;51.964;7.628;2023-07-20T04:25:04;15.20;99.90
2999;DHT22;1509;51.964;7.628;2023-07-20T04:27:30;15.30;99.90
2999;DHT22;1509;51.964;7.628;2023-07-20T04:29:57;15.40;99.90
2999;DHT22;1509;51.964;7.628;2023-07-20T04:32:23;15.30;99.90
2999;DHT22;1509;51.964;7.628;2023-07-20T04:34:49;15.40;99.90
2999;DHT22;1509;51.964;7.628;2023-07-20T04:37:15;15.40;99.90
2999;DHT22;1509;51.964;7.628;2023-07-20T04:39:40;15.40;99.90
2999;DHT22;1509;51.964;7.628;2023-07-20T04:42:06;15.50;99.90
2999;DHT22;1509;51.964;7.628;2023-07-20T04:44:31;15.50;99.90
2999;DHT22;1509;51.964;7.628;2023-07-20T04:46:57;15.60;99.90
2999;DHT22;1509;51.964;7.628;2023-07-20T04:49:23;15.70;99.90
2999;DHT22;1509;51.964;7.628;2023-07-20T04:51:48;15.50;99.90
2999;DHT22;1509;51.964;7.628;2023-07-20T04:54:14;15.40;99.90
2999;DHT22;1509;51.964;7.628;2023-07-20T04:56:40;15.40;99.90
2999;DHT22;1509;51.964;7.628;2023-07-20T04:59:05;15.30;99.90
2999;DHT22;1509;51.964;7.628;2023-07-20T05:01:31;15.20;99.90
2999;DHT22;1509;51.964;7.628;2023-07-20T05:03:57;15.20;99.90
2999;DHT22;1509;51.964;7.628;2023-07-20T05:06:22;15.10;99.90
2999;DHT22;1509;51.964;7.628;2023-07-20T05:08:48;15.10;99.90
2999;DHT22;1509;51.964;7.628;2023-07-20T05:11:13;15.20;99.90
2999;DHT22;1509;51.964;7.628;2023-07-20T05:13:40;15.30;99.90
2999;DHT22;1509;51.964;7.628;2023-07-20T05:16:05;15.40;99.90
2999;DHT22;1509;51.964;7.628;2023-07-20T05:18:31;15.50;99.90
2999;DHT22;1509;51.964;7.628;2023-07-20T05:20:56;15.50;99.90
2999;DHT22;1509;51.964;7.628;2023-07-20T05:23:22;15.60;99.90
2999;DHT22;1509;51.964;7.628;2023-07-20T05:25:57;15.60;99.90
2999;DHT22;1509;51.964;7.628;2023-07-20T05:28:26;15.70;99.90
2999;DHT22;1509;51.964;7.628;2023-07-20T05:30:52;15.70;99.90
2999;DHT22;1509;51.964;7.628;2023-07-20T05:33:21;15.70;99.90
2999;DHT22;1509;51.964;7.628;2023-07-20T05:35:48;15.80;99.90
2999;DHT22;1509;51.964;7.628;2023-07-20T05:38:14;15.80;99.90
2999;DHT22;1509;51.964;7.628;2023-07-20T05:40:41;15.80;99.90
2999;DHT22;1509;51.964;7.628;2023-07-20T05:43:08;15.90;99.90
2999;DHT22;1509;51.964;7.628;2023-07-20T05:45:34;15.80;99.90
2999;DHT22;1509;51.964;7.628;2023-07-20T05:47:59;15.70;99.90
2999;DHT22;1509;51.964;7.628;2023-07-20T05:50:25;15.70;99.90
2999;DHT22;1509;51.964;7.628;2023-07-20T05:52:54;15.60;99.90
2999;DHT22;1509;51.964;7.628;2023-07-20T05:55:20;15.60;99.90
2999;DHT22;1509;51.964;7.628;2023-07-20T05:57:46;15.80;99.90
2999;DHT22;1509;51.964;7.628;2023-07-20T06:00:12;15.80;99.90
2999;DHT22;1509;51.964;7.628;2023-07-20T06:02:38;15.80;99.90
2999;DHT22;1509;51.964;7.628;2023-07-20T06:05:05;15.90;99.90
2999;DHT22;1509;51.964;7.628;2023-07-20T06:07:31;15.90;99.90
2999;DHT22;1509;51.964;7.628;2023-07-20T06:09:57;15.90;99.90
2999;DHT22;1509;51.964;7.628;2023-07-20T06:12:23;15.90;99.90
2999;DHT22;1509;51.964;7.628;2023-07-20T06:14:49;15.90;99.90
2999;DHT22;1509;51.964;7.628;2023-07-20T06:17:15;16.00;99.90
2999;DHT22;1509;51.964;7.628;2023-07-20T06:19:40;16.00;99.90
2999;DHT22;1509;51.964;7.628;2023-07-20T06:22:06;16.00;99.90
2999;DHT22;1509;51.964;7.628;2023-07-20T06:24:32;15.90;99.90
2999;DHT22;1509;51.964;7.628;2023-07-20T06:26:57;15.90;99.90
2999;DHT22;1509;51.964;7.628;2023-07-20T06:29:23;16.00;99.90
2999;DHT22;1509;51.964;7.628;2023-07-20T06:31:48;16.00;99.90
2999;DHT22;1509;51.964;7.628;2023-07-20T06:34:14;16.10;99.90
2999;DHT22;1509;51.964;7.628;2023-07-20T06:36:40;16.10;99.90
2999;DHT22;1509;51.964;7.628;2023-07-20T06:39:05;16.20;99.90
2999;DHT22;1509;51.964;7.628;2023-07-20T06:41:33;16.40;99.90
2999;DHT22;1509;51.964;7.628;2023-07-20T06:43:59;16.30;99.90
2999;DHT22;1509;51.964;7.628;2023-07-20T06:46:25;16.40;99.90
2999;DHT22;1509;51.964;7.628;2023-07-20T06:48:51;16.40;99.90
2999;DHT22;1509;51.964;7.628;2023-07-20T06:51:17;16.40;99.90
2999;DHT22;1509;51.964;7.628;2023-07-20T06:53:43;16.50;99.90
2999;DHT22;1509;51.964;7.628;2023-07-20T06:56:09;16.40;99.90
2999;DHT22;1509;51.964;7.628;2023-07-20T06:58:35;16.30;99.90
2999;DHT22;1509;51.964;7.628;2023-07-20T07:01:05;16.20;99.90
2999;DHT22;1509;51.964;7.628;2023-07-20T07:03:32;16.20;99.90
2999;DHT22;1509;51.964;7.628;2023-07-20T07:05:57;16.20;99.90
2999;DHT22;1509;51.964;7.628;2023-07-20T07:08:23;16.30;99.90
2999;DHT22;1509;51.964;7.628;2023-07-20T07:10:48;16.40;99.90
2999;DHT22;1509;51.964;7.628;2023-07-20T07:13:14;16.40;99.90
2999;DHT22;1509;51.964;7.628;2023-07-20T07:18:06;16.50;99.90
2999;DHT22;1509;51.964;7.628;2023-07-20T07:20:31;16.60;99.90
2999;DHT22;1509;51.964;7.628;2023-07-20T07:22:57;16.70;99.90
2999;DHT22;1509;51.964;7.628;2023-07-20T07:25:23;16.80;99.90
2999;DHT22;1509;51.964;7.628;2023-07-20T07:27:48;16.80;99.90
2999;DHT22;1509;51.964;7.628;2023-07-20T07:30:14;16.80;99.90
2999;DHT22;1509;51.964;7.628;2023-07-20T07:32:40;16.80;99.90
2999;DHT22;1509;51.964;7.628;2023-07-20T07:35:07;16.80;99.90
2999;DHT22;1509;51.964;7.628;2023-07-20T07:37:32;16.90;99.90
2999;DHT22;1509;51.964;7.628;2023-07-20T07:39:58;16.80;99.90
2999;DHT22;1509;51.964;7.628;2023-07-20T07:42:23;16.90;99.90
2999;DHT22;1509;51.964;7.628;2023-07-20T07:44:49;17.00;99.90
2999;DHT22;1509;51.964;7.628;2023-07-20T07:47:14;17.10;99.90
2999;DHT22;1509;51.964;7.628;2023-07-20T07:49:40;17.20;99.90
2999;DHT22;1509;51.964;7.628;2023-07-20T07:52:06;17.30;99.90
2999;DHT22;1509;51.964;7.628;2023-07-20T07:54:31;17.40;99.90
2999;DHT22;1509;51.964;7.628;2023-07-20T07:59:23;17.30;99.90
2999;DHT22;1509;51.964;7.628;2023-07-20T08:01:49;17.50;99.90
2999;DHT22;1509;51.964;7.628;2023-07-20T08:04:14;17.50;99.90
2999;DHT22;1509;51.964;7.628;2023-07-20T08:06:42;17.40;99.90
2999;DHT22;1509;51.964;7.628;2023-07-20T08:09:08;17.30;99.90
2999;DHT22;1509;51.964;7.628;2023-07-20T08:11:34;17.20;99.90
2999;DHT22;1509;51.964;7.628;2023-07-20T08:14:02;17.10;99.90
2999;DHT22;1509;51.964;7.628;2023-07-20T08:16:28;17.20;99.90
2999;DHT22;1509;51.964;7.628;2023-07-20T08:18:54;17.30;99.90
2999;DHT22;1509;51.964;7.628;2023-07-20T08:21:19;17.40;99.90
2999;DHT22;1509;51.964;7.628;2023-07-20T08:23:45;17.40;99.90
2999;DHT22;1509;51.964;7.628;2023-07-20T08:26:10;17.50;99.90
2999;DHT22;1509;51.964;7.628;2023-07-20T08:28:36;17.40;99.90
2999;DHT22;1509;51.964;7.628;2023-07-20T08:31:01;17.50;99.90
2999;DHT22;1509;51.964;7.628;2023-07-20T08:33:28;17.70;99.90
2999;DHT22;1509;51.964;7.628;2023-07-20T08:35:55;17.80;99.90
2999;DHT22;1509;51.964;7.628;2023-07-20T08:38:21;17.80;99.90
2999;DHT22;1509;51.964;7.628;2023-07-20T08:40:47;17.80;99.90
2999;DHT22;1509;51.964;7.628;2023-07-20T08:43:16;18.10;99.90
2999;DHT22;1509;51.964;7.628;2023-07-20T08:45:42;18.10;99.90
2999;DHT22;1509;51.964;7.628;2023-07-20T08:48:12;18.20;99.90
2999;DHT22;1509;51.964;7.628;2023-07-20T08:53:04;18.20;99.90
2999;DHT22;1509;51.964;7.628;2023-07-20T08:55:30;18.20;99.90
2999;DHT22;1509;51.964;7.628;2023-07-20T08:57:58;18.40;99.90
2999;DHT22;1509;51.964;7.628;2023-07-20T09:00:25;18.70;99.90
2999;DHT22;1509;51.964;7.628;2023-07-20T09:02:53;19.10;99.90
2999;DHT22;1509;51.964;7.628;2023-07-20T09:05:20;19.20;99.90
2999;DHT22;1509;51.964;7.628;2023-07-20T09:07:46;19.40;99.90
2999;DHT22;1509;51.964;7.628;2023-07-20T09:10:12;19.60;99.90
2999;DHT22;1509;51.964;7.628;2023-07-20T09:22:30;21.80;99.90
2999;DHT22;1509;51.964;7.628;2023-07-20T09:32:19;22.20;99.90
2999;DHT22;1509;51.964;7.628;2023-07-20T09:34:46;23.90;99.90
2999;DHT22;1509;51.964;7.628;2023-07-20T09:37:20;26.00;99.90
2999;DHT22;1509;51.964;7.628;2023-07-20T09:39:46;27.60;99.90
2999;DHT22;1509;51.964;7.628;2023-07-20T09:42:13;28.20;99.90
2999;DHT22;1509;51.964;7.628;2023-07-20T09:44:39;29.50;99.90
2999;DHT22;1509;51.964;7.628;2023-07-20T09:47:06;30.70;99.90
2999;DHT22;1509;51.964;7.628;2023-07-20T09:49:32;29.90;99.90
2999;DHT22;1509;51.964;7.628;2023-07-20T09:51:58;29.00;99.90
2999;DHT22;1509;51.964;7.628;2023-07-20T09:54:26;26.60;99.90
2999;DHT22;1509;51.964;7.628;2023-07-20T09:56:54;24.90;99.90
2999;DHT22;1509;51.964;7.628;2023-07-20T09:59:21;24.30;99.90
2999;DHT22;1509;51.964;7.628;2023-07-20T10:01:47;25.40;99.90
2999;DHT22;1509;51.964;7.628;2023-07-20T10:04:16;26.50;99.90
2999;DHT22;1509;51.964;7.628;2023-07-20T10:06:47;27.90;99.90
2999;DHT22;1509;51.964;7.628;2023-07-20T10:09:15;28.40;99.90
2999;DHT22;1509;51.964;7.628;2023-07-20T10:11:50;28.90;99.90
2999;DHT22;1509;51.964;7.628;2023-07-20T10:14:20;29.40;99.90
2999;DHT22;1509;51.964;7.628;2023-07-20T10:16:57;29.30;99.90
2999;DHT22;1509;51.964;7.628;2023-07-20T10:19:44;29.00;99.90
2999;DHT22;1509;51.964;7.628;2023-07-20T10:22:16;28.70;99.90
2999;DHT22;1509;51.964;7.628;2023-07-20T10:24:46;29.20;99.90
2999;DHT22;1509;51.964;7.628;2023-07-20T10:27:13;29.30;99.90
2999;DHT22;1509;51.964;7.628;2023-07-20T10:29:40;28.80;99.90
2999;DHT22;1509;51.964;7.628;2023-07-20T10:32:08;27.80;99.90
2999;DHT22;1509;51.964;7.628;2023-07-20T10:34:37;27.50;99.90
2999;DHT22;1509;51.964;7.628;2023-07-20T10:37:03;28.00;99.90
2999;DHT22;1509;51.964;7.628;2023-07-20T10:39:31;29.00;99.90
2999;DHT22;1509;51.964;7.628;2023-07-20T10:42:07;30.00;99.90
2999;DHT22;1509;51.964;7.628;2023-07-20T10:44:33;29.50;99.90
2999;DHT22;1509;51.964;7.628;2023-07-20T10:47:03;28.50;99.90
2999;DHT22;1509;51.964;7.628;2023-07-20T10:49:33;28.90;99.90
2999;DHT22;1509;51.964;7.628;2023-07-20T10:52:00;29.10;99.90
2999;DHT22;1509;51.964;7.628;2023-07-20T10:56:57;29.60;99.90
2999;DHT22;1509;51.964;7.628;2023-07-20T11:01:49;29.20;99.90
2999;DHT22;1509;51.964;7.628;2023-07-20T11:04:15;29.70;99.90
2999;DHT22;1509;51.964;7.628;2023-07-20T11:06:44;29.60;99.90
2999;DHT22;1509;51.964;7.628;2023-07-20T11:09:10;29.60;99.90
2999;DHT22;1509;51.964;7.628;2023-07-20T11:11:39;29.40;99.90
2999;DHT22;1509;51.964;7.628;2023-07-20T11:14:07;29.30;99.90
2999;DHT22;1509;51.964;7.628;2023-07-20T11:16:41;28.70;99.90
2999;DHT22;1509;51.964;7.628;2023-07-20T11:19:20;28.50;99.90
2999;DHT22;1509;51.964;7.628;2023-07-20T11:21:54;29.10;99.90
2999;DHT22;1509;51.964;7.628;2023-07-20T11:24:20;28.40;99.90
2999;DHT22;1509;51.964;7.628;2023-07-20T11:26:51;27.50;99.90
2999;DHT22;1509;51.964;7.628;2023-07-20T11:29:23;27.20;99.90
2999;DHT22;1509;51.964;7.628;2023-07-20T11:31:50;27.20;99.90
2999;DHT22;1509;51.964;7.628;2023-07-20T11:34:22;28.50;99.90
2999;DHT22;1509;51.964;7.628;2023-07-20T11:36:49;29.30;99.90
2999;DHT22;1509;51.964;7.628;2023-07-20T11:39:17;29.50;99.90
2999;DHT22;1509;51.964;7.628;2023-07-20T11:41:55;28.60;99.90
2999;DHT22;1509;51.964;7.628;2023-07-20T11:44:28;28.90;99.90
2999;DHT22;1509;51.964;7.628;2023-07-20T11:47:07;29.90;99.90
2999;DHT22;1509;51.964;7.628;2023-07-20T11:49:43;29.70;99.90
2999;DHT22;1509;51.964;7.628;2023-07-20T11:52:10;29.60;99.90
2999;DHT22;1509;51.964;7.628;2023-07-20T11:54:38;30.00;99.90
2999;DHT22;1509;51.964;7.628;2023-07-20T11:57:04;30.10;99.90
2999;DHT22;1509;51.964;7.628;2023-07-20T11:59:31;30.90;99.90
2999;DHT22;1509;51.964;7.628;2023-07-20T12:01:58;31.70;99.90
2999;DHT22;1509;51.964;7.628;2023-07-20T12:04:24;32.20;99.90
2999;DHT22;1509;51.964;7.628;2023-07-20T12:06:49;32.80;99.90
2999;DHT22;1509;51.964;7.628;2023-07-20T12:09:16;32.00;99.90
2999;DHT22;1509;51.964;7.628;2023-07-20T12:11:48;29.60;99.90
2999;DHT22;1509;51.964;7.628;2023-07-20T12:14:14;28.70;99.90
2999;DHT22;1509;51.964;7.628;2023-07-20T12:16:39;29.20;99.90
2999;DHT22;1509;51.964;7.628;2023-07-20T12:19:07;29.80;99.90
2999;DHT22;1509;51.964;7.628;2023-07-20T12:21:38;29.70;99.90
2999;DHT22;1509;51.964;7.628;2023-07-20T12:24:05;29.70;99.90
2999;DHT22;1509;51.964;7.628;2023-07-20T12:26:33;29.10;99.90
2999;DHT22;1509;51.964;7.628;2023-07-20T12:28:59;29.40;99.90
2999;DHT22;1509;51.964;7.628;2023-07-20T12:31:26;29.20;99.90
2999;DHT22;1509;51.964;7.628;2023-07-20T12:33:52;28.70;99.90
2999;DHT22;1509;51.964;7.628;2023-07-20T12:36:19;28.10;99.90
2999;DHT22;1509;51.964;7.628;2023-07-20T12:38:45;28.80;99.90
2999;DHT22;1509;51.964;7.628;2023-07-20T12:41:11;28.60;99.90
2999;DHT22;1509;51.964;7.628;2023-07-20T12:43:41;28.30;99.90
2999;DHT22;1509;51.964;7.628;2023-07-20T12:46:08;27.30;99.90
2999;DHT22;1509;51.964;7.628;2023-07-20T12:48:34;26.90;99.90
2999;DHT22;1509;51.964;7.628;2023-07-20T12:51:00;26.70;99.90
2999;DHT22;1509;51.964;7.628;2023-07-20T12:53:25;27.40;99.90
2999;DHT22;1509;51.964;7.628;2023-07-20T12:55:51;27.70;99.90
2999;DHT22;1509;51.964;7.628;2023-07-20T12:58:17;28.50;99.90
2999;DHT22;1509;51.964;7.628;2023-07-20T13:00:43;28.10;99.90
2999;DHT22;1509;51.964;7.628;2023-07-20T13:03:09;27.20;99.90
2999;DHT22;1509;51.964;7.628;2023-07-20T13:05:35;27.20;99.90
2999;DHT22;1509;51.964;7.628;2023-07-20T13:08:02;28.20;99.90
2999;DHT22;1509;51.964;7.628;2023-07-20T13:10:27;29.40;99.90
2999;DHT22;1509;51.964;7.628;2023-07-20T13:12:54;30.80;99.90
2999;DHT22;1509;51.964;7.628;2023-07-20T13:15:20;31.00;99.90
2999;DHT22;1509;51.964;7.628;2023-07-20T13:17:45;29.90;99.90
2999;DHT22;1509;51.964;7.628;2023-07-20T13:20:11;28.50;99.90
2999;DHT22;1509;51.964;7.628;2023-07-20T13:22:40;27.20;99.90
2999;DHT22;1509;51.964;7.628;2023-07-20T13:25:07;26.90;99.90
2999;DHT22;1509;51.964;7.628;2023-07-20T13:27:33;27.60;99.90
2999;DHT22;1509;51.964;7.628;2023-07-20T13:29:59;28.70;99.90
2999;DHT22;1509;51.964;7.628;2023-07-20T13:32:26;28.60;99.90
2999;DHT22;1509;51.964;7.628;2023-07-20T13:34:52;28.80;99.90
2999;DHT22;1509;51.964;7.628;2023-07-20T13:37:18;29.30;99.90
2999;DHT22;1509;51.964;7.628;2023-07-20T13:42:13;29.00;99.90
2999;DHT22;1509;51.964;7.628;2023-07-20T13:44:38;28.60;99.90
2999;DHT22;1509;51.964;7.628;2023-07-20T13:47:04;28.60;99.90
2999;DHT22;1509;51.964;7.628;2023-07-20T13:49:31;28.60;99.90
2999;DHT22;1509;51.964;7.628;2023-07-20T13:51:57;28.30;99.90
2999;DHT22;1509;51.964;7.628;2023-07-20T13:54:23;27.70;99.90
2999;DHT22;1509;51.964;7.628;2023-07-20T13:56:49;26.70;99.90
2999;DHT22;1509;51.964;7.628;2023-07-20T13:59:15;26.20;99.90
2999;DHT22;1509;51.964;7.628;2023-07-20T14:01:41;26.10;99.90
2999;DHT22;1509;51.964;7.628;2023-07-20T14:04:07;25.90;99.90
2999;DHT22;1509;51.964;7.628;2023-07-20T14:06:33;25.60;99.90
2999;DHT22;1509;51.964;7.628;2023-07-20T14:08:59;25.30;99.90
2999;DHT22;1509;51.964;7.628;2023-07-20T14:11:25;25.40;99.90
2999;DHT22;1509;51.964;7.628;2023-07-20T14:13:51;25.50;99.90
2999;DHT22;1509;51.964;7.628;2023-07-20T14:16:21;25.50;99.90
2999;DHT22;1509;51.964;7.628;2023-07-20T14:18:47;25.40;99.90
2999;DHT22;1509;51.964;7.628;2023-07-20T14:21:17;25.10;99.90
2999;DHT22;1509;51.964;7.628;2023-07-20T14:23:45;25.10;99.90
2999;DHT22;1509;51.964;7.628;2023-07-20T14:26:12;25.00;99.90
2999;DHT22;1509;51.964;7.628;2023-07-20T14:28:37;25.00;99.90
2999;DHT22;1509;51.964;7.628;2023-07-20T14:31:03;25.00;99.90
2999;DHT22;1509;51.964;7.628;2023-07-20T14:33:29;25.10;99.90
2999;DHT22;1509;51.964;7.628;2023-07-20T14:35:54;25.30;99.90
2999;DHT22;1509;51.964;7.628;2023-07-20T14:38:20;25.50;99.90
2999;DHT22;1509;51.964;7.628;2023-07-20T14:40:45;25.60;99.90
2999;DHT22;1509;51.964;7.628;2023-07-20T14:43:11;25.70;99.90
2999;DHT22;1509;51.964;7.628;2023-07-20T14:45:37;25.50;99.90
2999;DHT22;1509;51.964;7.628;2023-07-20T14:48:05;25.40;99.90
2999;DHT22;1509;51.964;7.628;2023-07-20T14:50:31;25.10;99.90
2999;DHT22;1509;51.964;7.628;2023-07-20T14:52:57;25.30;99.90
2999;DHT22;1509;51.964;7.628;2023-07-20T14:55:22;25.50;99.90
2999;DHT22;1509;51.964;7.628;2023-07-20T14:57:48;25.60;99.90
2999;DHT22;1509;51.964;7.628;2023-07-20T15:00:14;25.60;99.90
2999;DHT22;1509;51.964;7.628;2023-07-20T15:02:40;25.40;99.90
2999;DHT22;1509;51.964;7.628;2023-07-20T15:05:09;25.00;99.90
2999;DHT22;1509;51.964;7.628;2023-07-20T15:07:36;24.90;99.90
2999;DHT22;1509;51.964;7.628;2023-07-20T15:10:02;25.00;99.90
2999;DHT22;1509;51.964;7.628;2023-07-20T15:12:29;25.20;99.90
2999;DHT22;1509;51.964;7.628;2023-07-20T15:15:09;25.10;99.90
2999;DHT22;1509;51.964;7.628;2023-07-20T15:17:36;25.10;99.90
2999;DHT22;1509;51.964;7.628;2023-07-20T15:20:03;25.00;99.90
2999;DHT22;1509;51.964;7.628;2023-07-20T15:22:33;25.10;99.90
2999;DHT22;1509;51.964;7.628;2023-07-20T15:24:59;25.40;99.90
2999;DHT22;1509;51.964;7.628;2023-07-20T15:27:26;25.10;99.90
2999;DHT22;1509;51.964;7.628;2023-07-20T15:29:51;25.00;99.90
2999;DHT22;1509;51.964;7.628;2023-07-20T15:32:19;24.70;99.90
2999;DHT22;1509;51.964;7.628;2023-07-20T15:34:46;24.40;99.90
2999;DHT22;1509;51.964;7.628;2023-07-20T15:37:11;24.20;99.90
2999;DHT22;1509;51.964;7.628;2023-07-20T15:39:38;24.00;99.90
2999;DHT22;1509;51.964;7.628;2023-07-20T15:42:04;24.10;99.90
2999;DHT22;1509;51.964;7.628;2023-07-20T15:44:30;24.30;99.90
2999;DHT22;1509;51.964;7.628;2023-07-20T15:46:56;24.40;99.90
2999;DHT22;1509;51.964;7.628;2023-07-20T15:49:21;24.60;99.90
2999;DHT22;1509;51.964;7.628;2023-07-20T15:51:47;24.70;99.90
2999;DHT22;1509;51.964;7.628;2023-07-20T15:54:14;24.70;99.90
2999;DHT22;1509;51.964;7.628;2023-07-20T15:56:41;24.50;99.90
2999;DHT22;1509;51.964;7.628;2023-07-20T15:59:10;24.60;99.90
2999;DHT22;1509;51.964;7.628;2023-07-20T16:01:39;24.40;99.90
2999;DHT22;1509;51.964;7.628;2023-07-20T16:04:06;24.30;99.90
2999;DHT22;1509;51.964;7.628;2023-07-20T16:06:31;24.00;99.90
2999;DHT22;1509;51.964;7.628;2023-07-20T16:08:58;23.90;99.90
2999;DHT22;1509;51.964;7.628;2023-07-20T16:11:27;23.90;99.90
2999;DHT22;1509;51.964;7.628;2023-07-20T16:13:53;24.20;99.90
2999;DHT22;1509;51.964;7.628;2023-07-20T16:16:18;24.00;99.90
2999;DHT22;1509;51.964;7.628;2023-07-20T16:18:44;24.20;99.90
2999;DHT22;1509;51.964;7.628;2023-07-20T16:21:10;23.90;99.90
2999;DHT22;1509;51.964;7.628;2023-07-20T16:23:35;23.70;99.90
2999;DHT22;1509;51.964;7.628;2023-07-20T16:26:01;23.60;99.90
2999;DHT22;1509;51.964;7.628;2023-07-20T16:28:27;23.40;99.90
2999;DHT22;1509;51.964;7.628;2023-07-20T16:30:53;23.30;99.90
2999;DHT22;1509;51.964;7.628;2023-07-20T16:33:18;23.30;99.90
2999;DHT22;1509;51.964;7.628;2023-07-20T16:35:44;23.50;99.90
2999;DHT22;1509;51.964;7.628;2023-07-20T16:38:10;23.50;99.90